sensor_id;sensor_type;location;lat;lon;timestamp;P1;durP1;ratioP1;P2;durP2;ratioP2
14770;SDS011;7477;45.222;5.688;2023-08-01T00:02:45;3.97;;;3.28;;
14770;SDS011;7477;45.222;5.688;2023-08-01T00:06:04;5.63;;;3.55;;
14770;SDS011;7477;45.222;5.688;2023-08-01T00:09:23;4.15;;;3.08;;
14770;SDS011;7477;45.222;5.688;2023-08-01T00:12:43;6.05;;;3.35;;
14770;SDS011;7477;45.222;5.688;2023-08-01T00:16:02;3.95;;;2.78;;
14770;SDS011;7477;45.222;5.688;2023-08-01T00:19:21;3.92;;;3.17;;
14770;SDS011;7477;45.222;5.688;2023-08-01T00:22:40;5.55;;;3.15;;
14770;SDS011;7477;45.222;5.688;2023-08-01T00:25:59;5.97;;;2.97;;
14770;SDS011;7477;45.222;5.688;2023-08-01T00:29:18;3.25;;;2.55;;
14770;SDS011;7477;45.222;5.688;2023-08-01T00:32:38;6.95;;;3.15;;
14770;SDS011;7477;45.222;5.688;2023-08-01T00:35:57;6.35;;;3.30;;
14770;SDS011;7477;45.222;5.688;2023-08-01T00:39:16;5.40;;;3.53;;
14770;SDS011;7477;45.222;5.688;2023-08-01T00:42:35;6.47;;;3.20;;
14770;SDS011;7477;45.222;5.688;2023-08-01T00:45:58;6.70;;;3.17;;
14770;SDS011;7477;45.222;5.688;2023-08-01T00:49:19;4.32;;;2.83;;
14770;SDS011;7477;45.222;5.688;2023-08-01T00:52:39;4.22;;;3.33;;
14770;SDS011;7477;45.222;5.688;2023-08-01T00:55:59;8.15;;;3.22;;
14770;SDS011;7477;45.222;5.688;2023-08-01T00:59:18;5.07;;;3.42;;
14770;SDS011;7477;45.222;5.688;2023-08-01T01:06:22;4.40;;;3.25;;
14770;SDS011;7477;45.222;5.688;2023-08-01T01:09:45;4.40;;;2.75;;
14770;SDS011;7477;45.222;5.688;2023-08-01T01:13:04;5.63;;;3.10;;
14770;SDS011;7477;45.222;5.688;2023-08-01T01:16:23;3.95;;;2.90;;
14770;SDS011;7477;45.222;5.688;2023-08-01T01:19:42;4.00;;;3.13;;
14770;SDS011;7477;45.222;5.688;2023-08-01T01:23:03;3.83;;;2.70;;
14770;SDS011;7477;45.222;5.688;2023-08-01T01:26:23;5.00;;;3.20;;
14770;SDS011;7477;45.222;5.688;2023-08-01T01:29:42;4.47;;;3.08;;
14770;SDS011;7477;45.222;5.688;2023-08-01T01:33:03;3.40;;;2.90;;
14770;SDS011;7477;45.222;5.688;2023-08-01T01:36:23;5.43;;;3.17;;
14770;SDS011;7477;45.222;5.688;2023-08-01T01:39:43;4.93;;;3.28;;
14770;SDS011;7477;45.222;5.688;2023-08-01T01:43:02;4.55;;;2.95;;
14770;SDS011;7477;45.222;5.688;2023-08-01T01:46:21;4.57;;;2.80;;
14770;SDS011;7477;45.222;5.688;2023-08-01T01:49:40;3.90;;;3.00;;
14770;SDS011;7477;45.222;5.688;2023-08-01T01:52:59;4.63;;;3.03;;
14770;SDS011;7477;45.222;5.688;2023-08-01T01:56:18;4.53;;;3.00;;
14770;SDS011;7477;45.222;5.688;2023-08-01T01:59:38;3.50;;;2.75;;
14770;SDS011;7477;45.222;5.688;2023-08-01T02:02:57;5.25;;;3.40;;
14770;SDS011;7477;45.222;5.688;2023-08-01T02:06:16;10.73;;;3.53;;
14770;SDS011;7477;45.222;5.688;2023-08-01T02:09:35;5.97;;;3.33;;
14770;SDS011;7477;45.222;5.688;2023-08-01T02:12:54;4.57;;;3.08;;
14770;SDS011;7477;45.222;5.688;2023-08-01T02:16:13;4.00;;;2.85;;
14770;SDS011;7477;45.222;5.688;2023-08-01T02:19:32;4.80;;;3.10;;
14770;SDS011;7477;45.222;5.688;2023-08-01T02:22:52;3.45;;;2.92;;
14770;SDS011;7477;45.222;5.688;2023-08-01T02:26:12;4.45;;;3.40;;
14770;SDS011;7477;45.222;5.688;2023-08-01T02:29:31;6.00;;;3.08;;
14770;SDS011;7477;45.222;5.688;2023-08-01T02:32:50;5.82;;;2.85;;
14770;SDS011;7477;45.222;5.688;2023-08-01T02:36:09;3.38;;;2.80;;
14770;SDS011;7477;45.222;5.688;2023-08-01T02:39:28;5.55;;;3.60;;
14770;SDS011;7477;45.222;5.688;2023-08-01T02:42:48;5.90;;;3.80;;
14770;SDS011;7477;45.222;5.688;2023-08-01T02:46:07;7.38;;;3.53;;
14770;SDS011;7477;45.222;5.688;2023-08-01T02:49:26;9.45;;;3.42;;
14770;SDS011;7477;45.222;5.688;2023-08-01T02:52:45;4.55;;;3.22;;
14770;SDS011;7477;45.222;5.688;2023-08-01T02:56:04;4.25;;;2.92;;
14770;SDS011;7477;45.222;5.688;2023-08-01T02:59:25;4.68;;;3.30;;
14770;SDS011;7477;45.222;5.688;2023-08-01T03:02:44;4.60;;;3.15;;
14770;SDS011;7477;45.222;5.688;2023-08-01T03:06:04;5.07;;;3.30;;
14770;SDS011;7477;45.222;5.688;2023-08-01T03:09:23;6.65;;;3.60;;
14770;SDS011;7477;45.222;5.688;2023-08-01T03:12:42;4.43;;;3.10;;
14770;SDS011;7477;45.222;5.688;2023-08-01T03:16:01;4.00;;;3.47;;
14770;SDS011;7477;45.222;5.688;2023-08-01T03:19:23;4.68;;;3.38;;
14770;SDS011;7477;45.222;5.688;2023-08-01T03:22:42;4.03;;;3.08;;
14770;SDS011;7477;45.222;5.688;2023-08-01T03:26:02;4.78;;;3.38;;
14770;SDS011;7477;45.222;5.688;2023-08-01T03:29:22;5.00;;;3.03;;
14770;SDS011;7477;45.222;5.688;2023-08-01T03:32:41;7.28;;;3.20;;
14770;SDS011;7477;45.222;5.688;2023-08-01T03:36:00;5.40;;;3.25;;
14770;SDS011;7477;45.222;5.688;2023-08-01T03:39:19;3.28;;;2.90;;
14770;SDS011;7477;45.222;5.688;2023-08-01T03:42:39;3.58;;;2.80;;
14770;SDS011;7477;45.222;5.688;2023-08-01T03:45:59;6.05;;;3.20;;
14770;SDS011;7477;45.222;5.688;2023-08-01T03:49:18;3.53;;;2.55;;
14770;SDS011;7477;45.222;5.688;2023-08-01T03:52:37;5.05;;;3.03;;
14770;SDS011;7477;45.222;5.688;2023-08-01T03:55:56;3.55;;;3.00;;
14770;SDS011;7477;45.222;5.688;2023-08-01T03:59:15;4.22;;;3.30;;
14770;SDS011;7477;45.222;5.688;2023-08-01T04:02:35;3.97;;;3.20;;
14770;SDS011;7477;45.222;5.688;2023-08-01T04:05:54;5.28;;;3.05;;
14770;SDS011;7477;45.222;5.688;2023-08-01T04:09:13;3.75;;;3.35;;
14770;SDS011;7477;45.222;5.688;2023-08-01T04:12:32;4.32;;;3.10;;
14770;SDS011;7477;45.222;5.688;2023-08-01T04:15:53;5.38;;;3.65;;
14770;SDS011;7477;45.222;5.688;2023-08-01T04:19:12;4.72;;;3.45;;
14770;SDS011;7477;45.222;5.688;2023-08-01T04:22:31;4.60;;;2.97;;
14770;SDS011;7477;45.222;5.688;2023-08-01T04:25:50;4.68;;;3.67;;
14770;SDS011;7477;45.222;5.688;2023-08-01T04:29:09;3.75;;;2.95;;
14770;SDS011;7477;45.222;5.688;2023-08-01T04:32:29;7.70;;;3.22;;
14770;SDS011;7477;45.222;5.688;2023-08-01T04:35:48;5.63;;;3.20;;
14770;SDS011;7477;45.222;5.688;2023-08-01T04:39:08;5.07;;;3.17;;
14770;SDS011;7477;45.222;5.688;2023-08-01T04:42:27;3.85;;;3.45;;
14770;SDS011;7477;45.222;5.688;2023-08-01T04:45:47;5.40;;;3.63;;
14770;SDS011;7477;45.222;5.688;2023-08-01T04:49:06;3.97;;;3.05;;
14770;SDS011;7477;45.222;5.688;2023-08-01T04:52:26;3.35;;;3.00;;
14770;SDS011;7477;45.222;5.688;2023-08-01T04:55:45;4.05;;;3.25;;
14770;SDS011;7477;45.222;5.688;2023-08-01T04:59:04;8.32;;;2.92;;
14770;SDS011;7477;45.222;5.688;2023-08-01T05:02:24;6.13;;;3.25;;
14770;SDS011;7477;45.222;5.688;2023-08-01T05:05:44;3.60;;;3.20;;
14770;SDS011;7477;45.222;5.688;2023-08-01T05:09:03;4.47;;;3.15;;
14770;SDS011;7477;45.222;5.688;2023-08-01T05:12:23;7.13;;;3.83;;
14770;SDS011;7477;45.222;5.688;2023-08-01T05:15:45;3.47;;;2.88;;
14770;SDS011;7477;45.222;5.688;2023-08-01T05:19:08;5.38;;;3.42;;
14770;SDS011;7477;45.222;5.688;2023-08-01T05:22:27;7.70;;;3.63;;
14770;SDS011;7477;45.222;5.688;2023-08-01T05:25:46;5.82;;;3.40;;
14770;SDS011;7477;45.222;5.688;2023-08-01T05:29:05;5.47;;;3.47;;
14770;SDS011;7477;45.222;5.688;2023-08-01T05:32:24;4.15;;;3.47;;
14770;SDS011;7477;45.222;5.688;2023-08-01T05:35:43;4.43;;;3.15;;
14770;SDS011;7477;45.222;5.688;2023-08-01T05:39:03;5.38;;;3.80;;
14770;SDS011;7477;45.222;5.688;2023-08-01T05:42:22;4.50;;;3.28;;
14770;SDS011;7477;45.222;5.688;2023-08-01T05:45:41;7.30;;;3.60;;
14770;SDS011;7477;45.222;5.688;2023-08-01T05:49:00;5.70;;;3.30;;
14770;SDS011;7477;45.222;5.688;2023-08-01T05:52:19;5.40;;;3.72;;
14770;SDS011;7477;45.222;5.688;2023-08-01T05:55:38;4.25;;;2.90;;
14770;SDS011;7477;45.222;5.688;2023-08-01T05:58:58;6.78;;;3.75;;
14770;SDS011;7477;45.222;5.688;2023-08-01T06:02:17;6.20;;;3.33;;
14770;SDS011;7477;45.222;5.688;2023-08-01T06:05:36;6.85;;;3.92;;
14770;SDS011;7477;45.222;5.688;2023-08-01T06:08:56;6.53;;;3.60;;
14770;SDS011;7477;45.222;5.688;2023-08-01T06:12:16;6.07;;;3.72;;
14770;SDS011;7477;45.222;5.688;2023-08-01T06:15:36;4.32;;;2.85;;
14770;SDS011;7477;45.222;5.688;2023-08-01T06:18:55;6.45;;;3.40;;
14770;SDS011;7477;45.222;5.688;2023-08-01T06:22:15;6.13;;;3.53;;
14770;SDS011;7477;45.222;5.688;2023-08-01T06:25:34;7.35;;;3.75;;
14770;SDS011;7477;45.222;5.688;2023-08-01T06:28:53;5.03;;;3.55;;
14770;SDS011;7477;45.222;5.688;2023-08-01T06:32:13;4.03;;;3.58;;
14770;SDS011;7477;45.222;5.688;2023-08-01T06:35:32;8.65;;;3.30;;
14770;SDS011;7477;45.222;5.688;2023-08-01T06:38:51;7.50;;;3.70;;
14770;SDS011;7477;45.222;5.688;2023-08-01T06:42:10;7.55;;;3.40;;
14770;SDS011;7477;45.222;5.688;2023-08-01T06:45:29;4.00;;;3.20;;
14770;SDS011;7477;45.222;5.688;2023-08-01T06:48:48;5.65;;;3.85;;
14770;SDS011;7477;45.222;5.688;2023-08-01T06:52:07;5.13;;;3.47;;
14770;SDS011;7477;45.222;5.688;2023-08-01T06:55:27;8.32;;;4.00;;
14770;SDS011;7477;45.222;5.688;2023-08-01T06:58:46;6.30;;;3.95;;
14770;SDS011;7477;45.222;5.688;2023-08-01T07:02:05;10.02;;;4.32;;
14770;SDS011;7477;45.222;5.688;2023-08-01T07:05:26;10.45;;;4.18;;
14770;SDS011;7477;45.222;5.688;2023-08-01T07:08:45;10.23;;;4.78;;
14770;SDS011;7477;45.222;5.688;2023-08-01T07:12:04;15.02;;;4.20;;
14770;SDS011;7477;45.222;5.688;2023-08-01T07:15:24;14.32;;;4.07;;
14770;SDS011;7477;45.222;5.688;2023-08-01T07:18:44;7.85;;;3.92;;
14770;SDS011;7477;45.222;5.688;2023-08-01T07:22:04;7.65;;;3.78;;
14770;SDS011;7477;45.222;5.688;2023-08-01T07:25:23;7.03;;;3.80;;
14770;SDS011;7477;45.222;5.688;2023-08-01T07:28:43;9.05;;;4.22;;
14770;SDS011;7477;45.222;5.688;2023-08-01T07:32:03;11.05;;;4.22;;
14770;SDS011;7477;45.222;5.688;2023-08-01T07:35:22;9.13;;;4.13;;
14770;SDS011;7477;45.222;5.688;2023-08-01T07:38:42;14.40;;;4.30;;
14770;SDS011;7477;45.222;5.688;2023-08-01T07:42:01;9.50;;;3.53;;
14770;SDS011;7477;45.222;5.688;2023-08-01T07:45:20;14.52;;;3.60;;
14770;SDS011;7477;45.222;5.688;2023-08-01T07:48:39;11.80;;;4.25;;
14770;SDS011;7477;45.222;5.688;2023-08-01T07:51:58;13.23;;;4.80;;
14770;SDS011;7477;45.222;5.688;2023-08-01T07:55:17;13.38;;;4.97;;
14770;SDS011;7477;45.222;5.688;2023-08-01T07:58:37;13.68;;;4.30;;
14770;SDS011;7477;45.222;5.688;2023-08-01T08:01:56;7.22;;;4.43;;
14770;SDS011;7477;45.222;5.688;2023-08-01T08:05:16;14.63;;;5.10;;
14770;SDS011;7477;45.222;5.688;2023-08-01T08:08:35;9.68;;;4.50;;
14770;SDS011;7477;45.222;5.688;2023-08-01T08:11:55;14.73;;;4.88;;
14770;SDS011;7477;45.222;5.688;2023-08-01T08:15:16;20.05;;;4.43;;
14770;SDS011;7477;45.222;5.688;2023-08-01T08:18:36;8.23;;;4.40;;
14770;SDS011;7477;45.222;5.688;2023-08-01T08:21:55;10.77;;;4.18;;
14770;SDS011;7477;45.222;5.688;2023-08-01T08:25:14;12.05;;;4.68;;
14770;SDS011;7477;45.222;5.688;2023-08-01T08:28:33;10.65;;;4.30;;
14770;SDS011;7477;45.222;5.688;2023-08-01T08:31:53;11.10;;;3.95;;
14770;SDS011;7477;45.222;5.688;2023-08-01T08:35:13;7.78;;;4.25;;
14770;SDS011;7477;45.222;5.688;2023-08-01T08:38:32;8.35;;;3.88;;
14770;SDS011;7477;45.222;5.688;2023-08-01T08:41:51;9.23;;;4.13;;
14770;SDS011;7477;45.222;5.688;2023-08-01T08:45:11;6.90;;;4.30;;
14770;SDS011;7477;45.222;5.688;2023-08-01T08:48:33;6.90;;;4.10;;
14770;SDS011;7477;45.222;5.688;2023-08-01T08:51:54;9.15;;;3.83;;
14770;SDS011;7477;45.222;5.688;2023-08-01T08:55:13;7.32;;;4.28;;
14770;SDS011;7477;45.222;5.688;2023-08-01T08:58:33;5.50;;;3.97;;
14770;SDS011;7477;45.222;5.688;2023-08-01T09:01:52;5.93;;;3.80;;
14770;SDS011;7477;45.222;5.688;2023-08-01T09:05:12;8.02;;;4.43;;
14770;SDS011;7477;45.222;5.688;2023-08-01T09:08:32;7.53;;;3.97;;
14770;SDS011;7477;45.222;5.688;2023-08-01T09:11:54;8.30;;;4.20;;
14770;SDS011;7477;45.222;5.688;2023-08-01T09:15:15;10.13;;;3.88;;
14770;SDS011;7477;45.222;5.688;2023-08-01T09:18:34;12.50;;;5.00;;
14770;SDS011;7477;45.222;5.688;2023-08-01T09:21:54;7.65;;;4.78;;
14770;SDS011;7477;45.222;5.688;2023-08-01T09:25:13;9.07;;;4.40;;
14770;SDS011;7477;45.222;5.688;2023-08-01T09:28:33;8.07;;;4.60;;
14770;SDS011;7477;45.222;5.688;2023-08-01T09:31:52;14.23;;;4.95;;
14770;SDS011;7477;45.222;5.688;2023-08-01T09:35:13;10.75;;;4.78;;
14770;SDS011;7477;45.222;5.688;2023-08-01T09:38:36;9.32;;;4.43;;
14770;SDS011;7477;45.222;5.688;2023-08-01T09:42:00;6.68;;;4.20;;
14770;SDS011;7477;45.222;5.688;2023-08-01T09:45:19;5.72;;;4.18;;
14770;SDS011;7477;45.222;5.688;2023-08-01T09:48:39;4.72;;;3.85;;
14770;SDS011;7477;45.222;5.688;2023-08-01T09:51:58;8.23;;;3.90;;
14770;SDS011;7477;45.222;5.688;2023-08-01T09:55:24;7.65;;;3.92;;
14770;SDS011;7477;45.222;5.688;2023-08-01T09:58:50;6.70;;;4.60;;
14770;SDS011;7477;45.222;5.688;2023-08-01T10:02:10;6.40;;;4.13;;
14770;SDS011;7477;45.222;5.688;2023-08-01T10:05:34;6.30;;;3.85;;
14770;SDS011;7477;45.222;5.688;2023-08-01T10:08:57;5.10;;;3.72;;
14770;SDS011;7477;45.222;5.688;2023-08-01T10:12:18;5.15;;;3.70;;
14770;SDS011;7477;45.222;5.688;2023-08-01T10:15:37;4.82;;;3.63;;
14770;SDS011;7477;45.222;5.688;2023-08-01T10:18:57;7.90;;;3.97;;
14770;SDS011;7477;45.222;5.688;2023-08-01T10:22:18;6.50;;;3.60;;
14770;SDS011;7477;45.222;5.688;2023-08-01T10:25:39;8.70;;;4.28;;
14770;SDS011;7477;45.222;5.688;2023-08-01T10:29:00;7.45;;;4.43;;
14770;SDS011;7477;45.222;5.688;2023-08-01T10:32:27;7.07;;;3.50;;
14770;SDS011;7477;45.222;5.688;2023-08-01T10:35:56;9.20;;;4.68;;
14770;SDS011;7477;45.222;5.688;2023-08-01T10:39:20;6.40;;;4.30;;
14770;SDS011;7477;45.222;5.688;2023-08-01T10:42:44;8.75;;;4.10;;
14770;SDS011;7477;45.222;5.688;2023-08-01T10:46:04;6.28;;;4.10;;
14770;SDS011;7477;45.222;5.688;2023-08-01T10:49:39;6.15;;;4.10;;
14770;SDS011;7477;45.222;5.688;2023-08-01T10:53:05;6.18;;;4.30;;
14770;SDS011;7477;45.222;5.688;2023-08-01T10:56:26;7.13;;;4.00;;
14770;SDS011;7477;45.222;5.688;2023-08-01T10:59:46;5.70;;;4.38;;
14770;SDS011;7477;45.222;5.688;2023-08-01T11:03:06;4.90;;;3.40;;
14770;SDS011;7477;45.222;5.688;2023-08-01T11:06:25;8.98;;;4.60;;
14770;SDS011;7477;45.222;5.688;2023-08-01T11:09:44;6.13;;;4.10;;
14770;SDS011;7477;45.222;5.688;2023-08-01T11:13:03;4.80;;;3.85;;
14770;SDS011;7477;45.222;5.688;2023-08-01T11:16:23;5.72;;;4.03;;
14770;SDS011;7477;45.222;5.688;2023-08-01T11:19:44;6.53;;;3.75;;
14770;SDS011;7477;45.222;5.688;2023-08-01T11:23:03;6.72;;;3.78;;
14770;SDS011;7477;45.222;5.688;2023-08-01T11:26:23;3.97;;;3.28;;
14770;SDS011;7477;45.222;5.688;2023-08-01T11:29:43;4.43;;;3.55;;
14770;SDS011;7477;45.222;5.688;2023-08-01T11:33:12;4.15;;;3.55;;
14770;SDS011;7477;45.222;5.688;2023-08-01T11:36:33;4.45;;;3.58;;
14770;SDS011;7477;45.222;5.688;2023-08-01T11:39:52;3.92;;;3.30;;
14770;SDS011;7477;45.222;5.688;2023-08-01T11:43:13;4.60;;;2.88;;
14770;SDS011;7477;45.222;5.688;2023-08-01T11:46:32;5.25;;;3.40;;
14770;SDS011;7477;45.222;5.688;2023-08-01T11:49:53;3.58;;;2.72;;
14770;SDS011;7477;45.222;5.688;2023-08-01T11:53:19;4.53;;;2.92;;
14770;SDS011;7477;45.222;5.688;2023-08-01T11:56:40;2.78;;;2.40;;
14770;SDS011;7477;45.222;5.688;2023-08-01T12:00:00;3.65;;;3.00;;
14770;SDS011;7477;45.222;5.688;2023-08-01T12:03:20;3.60;;;2.80;;
14770;SDS011;7477;45.222;5.688;2023-08-01T12:06:40;4.25;;;3.25;;
14770;SDS011;7477;45.222;5.688;2023-08-01T12:10:00;3.58;;;2.85;;
14770;SDS011;7477;45.222;5.688;2023-08-01T12:13:20;4.28;;;2.90;;
14770;SDS011;7477;45.222;5.688;2023-08-01T12:16:45;4.35;;;3.05;;
14770;SDS011;7477;45.222;5.688;2023-08-01T12:20:06;3.38;;;3.08;;
14770;SDS011;7477;45.222;5.688;2023-08-01T12:23:25;3.17;;;2.88;;
14770;SDS011;7477;45.222;5.688;2023-08-01T12:26:44;3.72;;;2.70;;
14770;SDS011;7477;45.222;5.688;2023-08-01T12:30:04;3.83;;;2.92;;
14770;SDS011;7477;45.222;5.688;2023-08-01T12:33:24;3.65;;;3.00;;
14770;SDS011;7477;45.222;5.688;2023-08-01T12:36:43;3.42;;;2.90;;
14770;SDS011;7477;45.222;5.688;2023-08-01T12:40:02;4.25;;;3.05;;
14770;SDS011;7477;45.222;5.688;2023-08-01T12:43:22;5.25;;;2.65;;
14770;SDS011;7477;45.222;5.688;2023-08-01T12:46:42;3.60;;;2.47;;
14770;SDS011;7477;45.222;5.688;2023-08-01T12:50:02;5.72;;;2.67;;
14770;SDS011;7477;45.222;5.688;2023-08-01T12:53:21;3.45;;;2.67;;
14770;SDS011;7477;45.222;5.688;2023-08-01T12:56:41;2.55;;;2.30;;
14770;SDS011;7477;45.222;5.688;2023-08-01T13:00:02;2.95;;;2.65;;
14770;SDS011;7477;45.222;5.688;2023-08-01T13:03:21;4.32;;;2.67;;
14770;SDS011;7477;45.222;5.688;2023-08-01T13:06:40;3.13;;;2.60;;
14770;SDS011;7477;45.222;5.688;2023-08-01T13:10:00;4.07;;;2.67;;
14770;SDS011;7477;45.222;5.688;2023-08-01T13:13:20;3.55;;;2.40;;
14770;SDS011;7477;45.222;5.688;2023-08-01T13:16:39;3.95;;;2.55;;
14770;SDS011;7477;45.222;5.688;2023-08-01T13:19:58;2.80;;;2.25;;
14770;SDS011;7477;45.222;5.688;2023-08-01T13:23:17;3.67;;;2.60;;
14770;SDS011;7477;45.222;5.688;2023-08-01T13:26:36;5.03;;;2.65;;
14770;SDS011;7477;45.222;5.688;2023-08-01T13:29:56;2.75;;;2.40;;
14770;SDS011;7477;45.222;5.688;2023-08-01T13:33:15;3.65;;;2.67;;
14770;SDS011;7477;45.222;5.688;2023-08-01T13:36:35;3.25;;;2.50;;
14770;SDS011;7477;45.222;5.688;2023-08-01T13:39:55;3.78;;;2.72;;
14770;SDS011;7477;45.222;5.688;2023-08-01T13:43:15;4.70;;;2.70;;
14770;SDS011;7477;45.222;5.688;2023-08-01T13:46:34;2.47;;;2.25;;
14770;SDS011;7477;45.222;5.688;2023-08-01T13:49:53;4.45;;;2.55;;
14770;SDS011;7477;45.222;5.688;2023-08-01T13:53:12;2.70;;;2.10;;
14770;SDS011;7477;45.222;5.688;2023-08-01T13:56:32;2.67;;;2.30;;
14770;SDS011;7477;45.222;5.688;2023-08-01T13:59:52;2.50;;;2.30;;
14770;SDS011;7477;45.222;5.688;2023-08-01T14:03:11;2.55;;;2.35;;
14770;SDS011;7477;45.222;5.688;2023-08-01T14:06:30;2.60;;;2.10;;
14770;SDS011;7477;45.222;5.688;2023-08-01T14:09:49;2.22;;;2.03;;
14770;SDS011;7477;45.222;5.688;2023-08-01T14:13:08;2.90;;;2.08;;
14770;SDS011;7477;45.222;5.688;2023-08-01T14:16:28;2.45;;;2.20;;
14770;SDS011;7477;45.222;5.688;2023-08-01T14:19:47;3.03;;;2.40;;
14770;SDS011;7477;45.222;5.688;2023-08-01T14:23:06;3.33;;;2.40;;
14770;SDS011;7477;45.222;5.688;2023-08-01T14:26:27;3.20;;;2.50;;
14770;SDS011;7477;45.222;5.688;2023-08-01T14:29:46;3.53;;;2.35;;
14770;SDS011;7477;45.222;5.688;2023-08-01T14:33:09;3.70;;;2.45;;
14770;SDS011;7477;45.222;5.688;2023-08-01T14:36:29;3.53;;;2.63;;
14770;SDS011;7477;45.222;5.688;2023-08-01T14:39:48;2.40;;;2.10;;
14770;SDS011;7477;45.222;5.688;2023-08-01T14:43:09;4.35;;;2.55;;
14770;SDS011;7477;45.222;5.688;2023-08-01T14:46:28;2.65;;;2.15;;
14770;SDS011;7477;45.222;5.688;2023-08-01T14:49:47;2.80;;;2.40;;
14770;SDS011;7477;45.222;5.688;2023-08-01T14:53:07;6.47;;;2.30;;
14770;SDS011;7477;45.222;5.688;2023-08-01T14:56:26;6.70;;;2.65;;
14770;SDS011;7477;45.222;5.688;2023-08-01T14:59:45;6.20;;;2.40;;
14770;SDS011;7477;45.222;5.688;2023-08-01T15:03:04;5.35;;;2.60;;
14770;SDS011;7477;45.222;5.688;2023-08-01T15:06:24;3.38;;;2.55;;
14770;SDS011;7477;45.222;5.688;2023-08-01T15:09:44;3.50;;;2.42;;
14770;SDS011;7477;45.222;5.688;2023-08-01T15:13:04;5.07;;;3.10;;
14770;SDS011;7477;45.222;5.688;2023-08-01T15:16:23;4.97;;;2.88;;
14770;SDS011;7477;45.222;5.688;2023-08-01T15:19:43;9.23;;;3.38;;
14770;SDS011;7477;45.222;5.688;2023-08-01T15:23:03;2.53;;;2.10;;
14770;SDS011;7477;45.222;5.688;2023-08-01T15:26:22;4.13;;;2.33;;
14770;SDS011;7477;45.222;5.688;2023-08-01T15:29:42;2.88;;;2.58;;
14770;SDS011;7477;45.222;5.688;2023-08-01T15:33:05;2.47;;;2.13;;
14770;SDS011;7477;45.222;5.688;2023-08-01T15:36:26;2.40;;;2.20;;
14770;SDS011;7477;45.222;5.688;2023-08-01T15:39:46;3.08;;;2.15;;
14770;SDS011;7477;45.222;5.688;2023-08-01T15:43:06;2.40;;;2.20;;
14770;SDS011;7477;45.222;5.688;2023-08-01T15:46:25;3.15;;;2.20;;
14770;SDS011;7477;45.222;5.688;2023-08-01T15:49:44;2.45;;;2.25;;
14770;SDS011;7477;45.222;5.688;2023-08-01T15:53:03;3.78;;;2.10;;
14770;SDS011;7477;45.222;5.688;2023-08-01T15:56:22;2.47;;;2.13;;
14770;SDS011;7477;45.222;5.688;2023-08-01T15:59:42;2.30;;;2.10;;
14770;SDS011;7477;45.222;5.688;2023-08-01T16:03:01;2.47;;;2.28;;
14770;SDS011;7477;45.222;5.688;2023-08-01T16:06:23;2.10;;;1.90;;
14770;SDS011;7477;45.222;5.688;2023-08-01T16:09:42;4.38;;;2.20;;
14770;SDS011;7477;45.222;5.688;2023-08-01T16:13:01;2.53;;;2.20;;
14770;SDS011;7477;45.222;5.688;2023-08-01T16:16:20;7.20;;;2.50;;
14770;SDS011;7477;45.222;5.688;2023-08-01T16:19:39;4.93;;;2.78;;
14770;SDS011;7477;45.222;5.688;2023-08-01T16:22:58;3.08;;;2.30;;
14770;SDS011;7477;45.222;5.688;2023-08-01T16:26:18;4.55;;;2.95;;
14770;SDS011;7477;45.222;5.688;2023-08-01T16:29:37;2.88;;;2.30;;
14770;SDS011;7477;45.222;5.688;2023-08-01T16:32:57;3.55;;;2.53;;
14770;SDS011;7477;45.222;5.688;2023-08-01T16:36:16;3.05;;;2.15;;
14770;SDS011;7477;45.222;5.688;2023-08-01T16:39:35;2.20;;;2.00;;
14770;SDS011;7477;45.222;5.688;2023-08-01T16:42:56;3.38;;;1.88;;
14770;SDS011;7477;45.222;5.688;2023-08-01T16:46:16;2.80;;;2.30;;
14770;SDS011;7477;45.222;5.688;2023-08-01T16:49:36;3.17;;;2.60;;
14770;SDS011;7477;45.222;5.688;2023-08-01T16:52:55;3.08;;;1.92;;
14770;SDS011;7477;45.222;5.688;2023-08-01T16:56:14;2.67;;;2.33;;
14770;SDS011;7477;45.222;5.688;2023-08-01T16:59:35;4.63;;;2.58;;
14770;SDS011;7477;45.222;5.688;2023-08-01T17:02:56;5.18;;;2.40;;
14770;SDS011;7477;45.222;5.688;2023-08-01T17:06:15;4.25;;;2.55;;
14770;SDS011;7477;45.222;5.688;2023-08-01T17:09:34;2.95;;;2.40;;
14770;SDS011;7477;45.222;5.688;2023-08-01T17:12:53;3.45;;;2.13;;
14770;SDS011;7477;45.222;5.688;2023-08-01T17:16:12;2.28;;;2.08;;
14770;SDS011;7477;45.222;5.688;2023-08-01T17:19:31;4.72;;;2.75;;
14770;SDS011;7477;45.222;5.688;2023-08-01T17:22:50;5.30;;;2.60;;
14770;SDS011;7477;45.222;5.688;2023-08-01T17:26:09;5.47;;;2.45;;
14770;SDS011;7477;45.222;5.688;2023-08-01T17:29:29;4.60;;;2.20;;
14770;SDS011;7477;45.222;5.688;2023-08-01T17:32:48;3.95;;;2.70;;
14770;SDS011;7477;45.222;5.688;2023-08-01T17:36:08;2.85;;;1.92;;
14770;SDS011;7477;45.222;5.688;2023-08-01T17:39:27;2.72;;;2.15;;
14770;SDS011;7477;45.222;5.688;2023-08-01T17:42:47;2.78;;;2.05;;
14770;SDS011;7477;45.222;5.688;2023-08-01T17:46:06;3.42;;;2.25;;
14770;SDS011;7477;45.222;5.688;2023-08-01T17:49:25;2.88;;;2.60;;
14770;SDS011;7477;45.222;5.688;2023-08-01T17:52:44;2.60;;;2.15;;
14770;SDS011;7477;45.222;5.688;2023-08-01T17:56:03;2.90;;;2.42;;
14770;SDS011;7477;45.222;5.688;2023-08-01T17:59:23;2.88;;;2.22;;
14770;SDS011;7477;45.222;5.688;2023-08-01T18:02:42;2.90;;;2.53;;
14770;SDS011;7477;45.222;5.688;2023-08-01T18:06:11;3.28;;;2.80;;
14770;SDS011;7477;45.222;5.688;2023-08-01T18:09:32;2.97;;;2.33;;
14770;SDS011;7477;45.222;5.688;2023-08-01T18:12:51;4.07;;;2.42;;
14770;SDS011;7477;45.222;5.688;2023-08-01T18:16:21;5.53;;;2.83;;
14770;SDS011;7477;45.222;5.688;2023-08-01T18:19:42;2.38;;;2.17;;
14770;SDS011;7477;45.222;5.688;2023-08-01T18:23:04;7.43;;;2.25;;
14770;SDS011;7477;45.222;5.688;2023-08-01T18:26:24;2.50;;;2.25;;
14770;SDS011;7477;45.222;5.688;2023-08-01T18:29:43;3.33;;;2.28;;
14770;SDS011;7477;45.222;5.688;2023-08-01T18:33:03;2.20;;;1.95;;
14770;SDS011;7477;45.222;5.688;2023-08-01T18:36:22;2.15;;;1.92;;
14770;SDS011;7477;45.222;5.688;2023-08-01T18:39:44;2.60;;;2.40;;
14770;SDS011;7477;45.222;5.688;2023-08-01T18:43:03;2.10;;;1.90;;
14770;SDS011;7477;45.222;5.688;2023-08-01T18:46:23;2.65;;;2.22;;
14770;SDS011;7477;45.222;5.688;2023-08-01T18:49:42;2.20;;;1.92;;
14770;SDS011;7477;45.222;5.688;2023-08-01T18:53:02;2.42;;;2.22;;
14770;SDS011;7477;45.222;5.688;2023-08-01T18:56:21;2.50;;;2.17;;
14770;SDS011;7477;45.222;5.688;2023-08-01T18:59:41;2.10;;;1.63;;
14770;SDS011;7477;45.222;5.688;2023-08-01T19:03:00;3.50;;;2.10;;
14770;SDS011;7477;45.222;5.688;2023-08-01T19:06:21;2.92;;;2.00;;
14770;SDS011;7477;45.222;5.688;2023-08-01T19:09:42;2.58;;;2.22;;
14770;SDS011;7477;45.222;5.688;2023-08-01T19:13:01;2.70;;;2.47;;
14770;SDS011;7477;45.222;5.688;2023-08-01T19:16:20;2.40;;;1.90;;
14770;SDS011;7477;45.222;5.688;2023-08-01T19:19:40;2.17;;;1.88;;
14770;SDS011;7477;45.222;5.688;2023-08-01T19:23:01;2.30;;;2.10;;
14770;SDS011;7477;45.222;5.688;2023-08-01T19:26:20;2.08;;;1.77;;
14770;SDS011;7477;45.222;5.688;2023-08-01T19:29:39;2.90;;;2.30;;
14770;SDS011;7477;45.222;5.688;2023-08-01T19:32:59;2.65;;;2.22;;
14770;SDS011;7477;45.222;5.688;2023-08-01T19:36:20;3.38;;;2.13;;
14770;SDS011;7477;45.222;5.688;2023-08-01T19:39:40;3.10;;;2.20;;
14770;SDS011;7477;45.222;5.688;2023-08-01T19:42:59;3.38;;;2.40;;
14770;SDS011;7477;45.222;5.688;2023-08-01T19:46:18;2.88;;;2.33;;
14770;SDS011;7477;45.222;5.688;2023-08-01T19:49:37;2.95;;;2.03;;
14770;SDS011;7477;45.222;5.688;2023-08-01T19:52:56;2.47;;;2.28;;
14770;SDS011;7477;45.222;5.688;2023-08-01T19:56:16;2.05;;;1.85;;
14770;SDS011;7477;45.222;5.688;2023-08-01T19:59:36;3.05;;;2.15;;
14770;SDS011;7477;45.222;5.688;2023-08-01T20:02:55;2.95;;;2.10;;
14770;SDS011;7477;45.222;5.688;2023-08-01T20:06:15;2.70;;;2.10;;
14770;SDS011;7477;45.222;5.688;2023-08-01T20:09:34;3.47;;;1.98;;
14770;SDS011;7477;45.222;5.688;2023-08-01T20:12:53;1.85;;;1.70;;
14770;SDS011;7477;45.222;5.688;2023-08-01T20:16:12;2.53;;;2.17;;
14770;SDS011;7477;45.222;5.688;2023-08-01T20:19:31;2.25;;;2.00;;
14770;SDS011;7477;45.222;5.688;2023-08-01T20:22:56;2.72;;;2.03;;
14770;SDS011;7477;45.222;5.688;2023-08-01T20:26:15;2.17;;;1.73;;